< < Back
Terminal Aerodrome Forecast


Current Version              Previous Versions:   1  2  3  4  5  6  7  8  9  

Terminal Aerodrome Forecast

885
FTUS42 KGSP 252337
TAFAND
TAF
KAND 252337Z 2600/2624 19004KT P6SM SKC
     FM260400 VRB03KT P6SM SCT100
     FM261600 22006KT P6SM SCT050 PROB30 2620/2624 4SM TSRA
      BKN040CB=

Latest METAR

641
SAUS70 KWBC 270200 RRB
MTRAND
METAR KAND 270156Z AUTO 00000KT 10SM CLR 23/18 A3010 RMK AO2 SLP185
T02330178


USA.gov is the U.S. government's official web portal to all federal, state and local government web resources and services.